Coronel Bogado, Argentina
Current Conditions -  °F | °C
As of 4:00 AM on Friday 31 Oct 2014 (Local Time) from SAAR Reporting Station
Clear Clear  
Wind Chill: 19°   Ceiling: Unl
Heat Index: 19°   Visibility: 6mi
Dew Point: 15°   Wind: 6mph
Humidity: 78%   Direction: 70°ENE
Pressure: 29.8"   Gusts: NA
Location:  33.4°S, 60.55°W
Report Text: SAAR 310700Z 07005KT CAVOK 19/15 Q1009
Loading
Personal Weather Stations






























Interactive Weather Map
Tropical Storm Tracking
New forecast layout! Learn more

10-Day Weather Forecast

Advertisements
Track Severe Weather on mobile